Time;durP1;ratioP1;P1;durP2;ratioP2;P2;SDS_P1;SDS_P2;PMS_P1;PMS_P2;Temp;Humidity;BMP_temperature;BMP_pressure;BME280_temperature;BME280_humidity;BME280_pressure;Samples;Min_cycle;Max_cycle;Signal;HPM_P1;HPM_P2
2023/12/13 00:01:23;;;;;;;0.30;0.30;;;;;;;;;;5022044;28;20073;-84
2023/12/13 00:03:50;;;;;;;0.20;0.20;;;;;;;;;;5008167;28;20046;-85
2023/12/13 00:06:15;;;;;;;0.20;0.20;;;;;;;;;;5001926;28;20026;-85
2023/12/13 00:08:40;;;;;;;0.30;0.30;;;;;;;;;;5021448;28;20037;-85
2023/12/13 00:11:05;;;;;;;0.30;0.30;;;;;;;;;;5022135;28;20049;-82
2023/12/13 00:13:31;;;;;;;0.30;0.30;;;;;;;;;;5020634;28;20038;-85
2023/12/13 00:15:56;;;;;;;0.32;0.32;;;;;;;;;;5021556;28;20030;-83
2023/12/13 00:18:21;;;;;;;0.20;0.20;;;;;;;;;;5020430;28;20021;-85
2023/12/13 00:20:46;;;;;;;0.28;0.28;;;;;;;;;;5022485;28;20026;-84
2023/12/13 00:23:12;;;;;;;0.28;0.28;;;;;;;;;;5021912;28;20034;-85
2023/12/13 00:25:37;;;;;;;0.20;0.20;;;;;;;;;;5021911;28;20435;-84
2023/12/13 00:28:02;;;;;;;0.25;0.25;;;;;;;;;;5006887;28;20044;-86
2023/12/13 00:30:28;;;;;;;0.32;0.32;;;;;;;;;;5021471;28;20172;-85
2023/12/13 00:32:54;;;;;;;0.30;0.30;;;;;;;;;;5021251;28;20109;-85
2023/12/13 00:35:19;;;;;;;0.20;0.20;;;;;;;;;;5004141;28;20037;-85
2023/12/13 00:37:45;;;;;;;0.20;0.20;;;;;;;;;;5004328;28;20033;-83
2023/12/13 00:40:10;;;;;;;0.20;0.20;;;;;;;;;;5021983;28;20052;-84
2023/12/13 00:42:37;;;;;;;0.20;0.20;;;;;;;;;;5021895;28;20040;-84
2023/12/13 00:45:03;;;;;;;0.20;0.20;;;;;;;;;;5022583;28;20017;-85
2023/12/13 00:47:28;;;;;;;0.20;0.20;;;;;;;;;;5023392;28;20049;-84
2023/12/13 00:49:54;;;;;;;0.30;0.30;;;;;;;;;;5022973;28;20442;-84
2023/12/13 00:52:19;;;;;;;0.20;0.20;;;;;;;;;;5022458;28;20086;-84
2023/12/13 00:54:44;;;;;;;0.20;0.20;;;;;;;;;;5006579;28;20045;-84
2023/12/13 00:57:09;;;;;;;0.20;0.20;;;;;;;;;;5022674;28;20528;-83
2023/12/13 00:59:35;;;;;;;0.20;0.20;;;;;;;;;;5020673;28;20014;-84
2023/12/13 01:02:00;;;;;;;0.20;0.20;;;;;;;;;;5022072;28;20029;-84
2023/12/13 01:04:25;;;;;;;0.20;0.20;;;;;;;;;;5002545;28;20030;-83
2023/12/13 01:06:51;;;;;;;0.20;0.20;;;;;;;;;;5022238;28;20037;-85
2023/12/13 01:09:16;;;;;;;0.20;0.20;;;;;;;;;;5003894;28;20033;-84
2023/12/13 01:11:41;;;;;;;0.30;0.30;;;;;;;;;;5021074;28;20073;-84
2023/12/13 01:14:06;;;;;;;1.23;0.30;;;;;;;;;;5021771;28;20573;-86
2023/12/13 01:16:33;;;;;;;0.20;0.20;;;;;;;;;;5020840;28;20397;-86
2023/12/13 01:18:58;;;;;;;0.20;0.20;;;;;;;;;;5004760;28;20111;-83
2023/12/13 01:21:23;;;;;;;0.30;0.30;;;;;;;;;;5023409;28;20112;-85
2023/12/13 01:23:48;;;;;;;0.20;0.20;;;;;;;;;;5021125;28;20021;-85
2023/12/13 01:26:14;;;;;;;0.50;0.50;;;;;;;;;;5021875;28;20038;-83
2023/12/13 01:28:39;;;;;;;0.35;0.35;;;;;;;;;;5020667;28;20034;-86
2023/12/13 01:31:09;;;;;;;0.30;0.30;;;;;;;;;;5019064;28;20026;-84
2023/12/13 01:33:34;;;;;;;0.30;0.30;;;;;;;;;;5018456;28;20108;-84
2023/12/13 01:36:03;;;;;;;0.20;0.20;;;;;;;;;;5020625;28;20057;-85
2023/12/13 01:38:28;;;;;;;0.30;0.30;;;;;;;;;;5018102;28;20046;-85
2023/12/13 01:40:54;;;;;;;0.40;0.40;;;;;;;;;;5018408;28;20088;-85
2023/12/13 01:43:23;;;;;;;0.30;0.30;;;;;;;;;;5019179;28;20124;-85
2023/12/13 01:45:51;;;;;;;0.93;0.40;;;;;;;;;;5019344;28;20037;-85
2023/12/13 01:48:16;;;;;;;0.22;0.22;;;;;;;;;;4998911;28;20022;-84
2023/12/13 01:50:42;;;;;;;0.30;0.30;;;;;;;;;;5018380;28;20040;-84
2023/12/13 01:53:08;;;;;;;0.30;0.30;;;;;;;;;;5020120;28;20406;-86
2023/12/13 01:55:33;;;;;;;0.25;0.25;;;;;;;;;;5021909;28;20033;-83
2023/12/13 01:57:58;;;;;;;0.20;0.20;;;;;;;;;;5023239;28;20041;-85
2023/12/13 02:00:24;;;;;;;0.20;0.20;;;;;;;;;;5006782;28;20041;-83
2023/12/13 02:02:50;;;;;;;0.50;0.50;;;;;;;;;;5025667;28;20177;-85
2023/12/13 02:05:16;;;;;;;0.20;0.20;;;;;;;;;;5024137;28;20040;-84
2023/12/13 02:07:42;;;;;;;0.30;0.30;;;;;;;;;;5025136;28;20034;-86
2023/12/13 02:10:08;;;;;;;0.88;0.30;;;;;;;;;;5023740;28;20093;-85
2023/12/13 02:12:33;;;;;;;0.28;0.28;;;;;;;;;;5024245;28;20030;-85
2023/12/13 02:14:58;;;;;;;0.65;0.30;;;;;;;;;;5024201;28;20022;-82
2023/12/13 02:17:24;;;;;;;0.20;0.20;;;;;;;;;;5027561;28;20042;-83
2023/12/13 02:19:49;;;;;;;0.20;0.20;;;;;;;;;;5023085;28;20086;-84
2023/12/13 02:22:14;;;;;;;0.30;0.30;;;;;;;;;;5022870;28;20030;-86
2023/12/13 02:24:41;;;;;;;1.13;0.40;;;;;;;;;;5022301;28;20394;-86
2023/12/13 02:27:06;;;;;;;0.20;0.20;;;;;;;;;;5013300;28;20025;-85
2023/12/13 02:29:32;;;;;;;0.30;0.30;;;;;;;;;;5022811;28;20022;-85
2023/12/13 02:31:57;;;;;;;0.20;0.20;;;;;;;;;;5023177;28;20060;-83
2023/12/13 02:34:23;;;;;;;0.35;0.30;;;;;;;;;;5023182;28;20046;-83
2023/12/13 02:36:48;;;;;;;0.38;0.38;;;;;;;;;;5006807;28;20048;-83
2023/12/13 02:39:13;;;;;;;0.30;0.30;;;;;;;;;;5021476;28;20048;-86
2023/12/13 02:41:39;;;;;;;0.30;0.30;;;;;;;;;;5022669;28;20026;-84
2023/12/13 02:44:04;;;;;;;0.50;0.30;;;;;;;;;;5020844;28;20124;-85
2023/12/13 02:46:29;;;;;;;0.55;0.50;;;;;;;;;;5004359;28;20560;-85
2023/12/13 02:48:57;;;;;;;0.30;0.30;;;;;;;;;;5020534;28;20049;-84
2023/12/13 02:51:23;;;;;;;0.40;0.40;;;;;;;;;;5021421;28;20150;-84
2023/12/13 02:53:48;;;;;;;0.52;0.30;;;;;;;;;;5013138;28;20095;-84
2023/12/13 02:56:13;;;;;;;1.02;0.30;;;;;;;;;;5014812;28;20029;-86
2023/12/13 02:58:38;;;;;;;0.30;0.30;;;;;;;;;;5021294;28;20057;-86
2023/12/13 03:01:04;;;;;;;0.30;0.30;;;;;;;;;;5005496;28;20045;-84
2023/12/13 03:03:29;;;;;;;0.40;0.40;;;;;;;;;;5021115;28;20037;-83
2023/12/13 03:05:54;;;;;;;1.38;0.47;;;;;;;;;;5023239;28;20034;-85
2023/12/13 03:08:20;;;;;;;0.40;0.40;;;;;;;;;;5023610;28;20037;-84
2023/12/13 03:10:45;;;;;;;1.83;0.60;;;;;;;;;;5023688;28;20030;-83
2023/12/13 03:13:10;;;;;;;3.13;0.60;;;;;;;;;;5023435;28;20034;-86
2023/12/13 03:15:35;;;;;;;0.57;0.57;;;;;;;;;;5024508;28;20041;-84
2023/12/13 03:18:01;;;;;;;4.40;0.57;;;;;;;;;;5024269;28;20032;-86
2023/12/13 03:20:26;;;;;;;0.57;0.57;;;;;;;;;;5023682;28;20033;-84
2023/12/13 03:22:51;;;;;;;0.40;0.40;;;;;;;;;;5013403;28;20053;-83
2023/12/13 03:25:18;;;;;;;2.30;0.60;;;;;;;;;;5023979;28;20030;-85
2023/12/13 03:27:44;;;;;;;1.25;1.05;;;;;;;;;;5006121;28;20084;-83
2023/12/13 03:30:10;;;;;;;1.73;0.70;;;;;;;;;;5023674;28;20022;-85
2023/12/13 03:32:36;;;;;;;0.50;0.50;;;;;;;;;;5023626;28;20014;-85
2023/12/13 03:35:02;;;;;;;0.68;0.65;;;;;;;;;;5021291;28;20054;-84
2023/12/13 03:37:31;;;;;;;0.47;0.47;;;;;;;;;;5023710;28;20037;-84
2023/12/13 03:39:56;;;;;;;0.85;0.68;;;;;;;;;;5022795;28;20087;-83
2023/12/13 03:42:21;;;;;;;0.75;0.70;;;;;;;;;;5006239;28;20045;-83
2023/12/13 03:44:47;;;;;;;0.60;0.60;;;;;;;;;;5006258;28;20026;-84
2023/12/13 03:47:12;;;;;;;0.52;0.52;;;;;;;;;;5060698;23;20079;-82
2023/12/13 03:49:37;;;;;;;0.63;0.63;;;;;;;;;;5057284;28;20053;-79
2023/12/13 03:52:03;;;;;;;0.57;0.50;;;;;;;;;;5056827;28;20033;-80
2023/12/13 03:54:29;;;;;;;2.22;0.52;;;;;;;;;;5038764;28;20063;-80
2023/12/13 03:56:54;;;;;;;2.20;1.10;;;;;;;;;;5057843;28;20021;-82
2023/12/13 03:59:19;;;;;;;1.30;0.75;;;;;;;;;;5057390;28;20048;-81
2023/12/13 04:01:45;;;;;;;0.60;0.60;;;;;;;;;;5057553;28;20029;-81
2023/12/13 04:04:10;;;;;;;0.70;0.70;;;;;;;;;;5056972;28;20045;-81
2023/12/13 04:06:35;;;;;;;1.85;0.70;;;;;;;;;;5056837;28;20033;-81
2023/12/13 04:09:01;;;;;;;0.80;0.57;;;;;;;;;;5058171;28;20036;-81
2023/12/13 04:11:26;;;;;;;2.85;0.60;;;;;;;;;;5057288;28;20408;-81
2023/12/13 04:13:51;;;;;;;1.58;0.70;;;;;;;;;;5057010;28;20101;-81
2023/12/13 04:16:16;;;;;;;0.65;0.65;;;;;;;;;;5057265;28;20040;-81
2023/12/13 04:18:42;;;;;;;5.43;0.80;;;;;;;;;;5057294;28;20025;-80
2023/12/13 04:21:07;;;;;;;1.38;0.50;;;;;;;;;;5039669;28;20021;-81
2023/12/13 04:23:33;;;;;;;0.63;0.47;;;;;;;;;;5040102;28;20017;-81
2023/12/13 04:25:58;;;;;;;0.68;0.60;;;;;;;;;;5039273;28;20578;-81
2023/12/13 04:28:23;;;;;;;0.65;0.65;;;;;;;;;;5039498;28;20041;-80
2023/12/13 04:30:49;;;;;;;0.50;0.50;;;;;;;;;;5056825;28;20029;-79
2023/12/13 04:33:18;;;;;;;0.60;0.60;;;;;;;;;;5037918;28;20393;-80
2023/12/13 04:35:44;;;;;;;0.47;0.47;;;;;;;;;;5039508;28;20025;-81
2023/12/13 04:38:12;;;;;;;0.50;0.50;;;;;;;;;;5044879;28;20033;-80
2023/12/13 04:40:39;;;;;;;1.23;0.70;;;;;;;;;;5047738;28;20036;-81
2023/12/13 04:43:05;;;;;;;0.63;0.63;;;;;;;;;;5055505;28;20183;-79
2023/12/13 04:45:30;;;;;;;4.53;0.80;;;;;;;;;;5056216;28;20029;-80
2023/12/13 04:47:56;;;;;;;1.95;0.80;;;;;;;;;;5036888;28;20119;-82
2023/12/13 04:50:22;;;;;;;0.40;0.40;;;;;;;;;;5052398;28;20511;-82
2023/12/13 04:52:48;;;;;;;0.85;0.50;;;;;;;;;;5048555;28;20037;-81
2023/12/13 04:55:14;;;;;;;0.65;0.65;;;;;;;;;;5047147;28;20037;-82
2023/12/13 04:57:39;;;;;;;1.88;0.40;;;;;;;;;;5047662;28;20665;-82
2023/12/13 05:00:07;;;;;;;4.85;0.50;;;;;;;;;;5048593;28;20036;-80
2023/12/13 05:02:32;;;;;;;0.55;0.52;;;;;;;;;;5051709;28;20408;-82
2023/12/13 05:04:58;;;;;;;1.33;0.93;;;;;;;;;;5046290;28;20041;-80
2023/12/13 05:07:25;;;;;;;0.50;0.50;;;;;;;;;;5045451;28;20029;-80
2023/12/13 05:09:50;;;;;;;0.73;0.70;;;;;;;;;;5046475;28;20033;-80
2023/12/13 05:12:15;;;;;;;0.50;0.50;;;;;;;;;;5049600;28;20024;-82
2023/12/13 05:14:40;;;;;;;0.40;0.40;;;;;;;;;;5042970;28;20099;-79
2023/12/13 05:17:05;;;;;;;3.60;0.55;;;;;;;;;;5044480;28;20129;-80
2023/12/13 05:19:31;;;;;;;0.47;0.47;;;;;;;;;;5029545;28;20025;-80
2023/12/13 05:21:56;;;;;;;0.57;0.50;;;;;;;;;;5040016;28;20070;-80
2023/12/13 05:24:21;;;;;;;0.75;0.43;;;;;;;;;;5049371;28;20016;-80
2023/12/13 05:26:47;;;;;;;4.63;0.60;;;;;;;;;;5048607;28;20032;-80
2023/12/13 05:29:12;;;;;;;0.75;0.65;;;;;;;;;;5045457;28;20549;-83
2023/12/13 05:31:37;;;;;;;0.43;0.40;;;;;;;;;;5049767;28;20083;-82
2023/12/13 05:34:03;;;;;;;1.52;0.57;;;;;;;;;;5041131;28;20453;-82
2023/12/13 05:36:28;;;;;;;0.40;0.40;;;;;;;;;;5049955;28;20033;-81
2023/12/13 05:38:53;;;;;;;0.40;0.40;;;;;;;;;;5048424;28;20032;-82
2023/12/13 05:41:19;;;;;;;1.13;0.43;;;;;;;;;;5039758;28;20089;-81
2023/12/13 05:43:44;;;;;;;1.75;0.80;;;;;;;;;;5044670;28;20099;-81
2023/12/13 05:46:09;;;;;;;1.17;0.50;;;;;;;;;;5029878;28;20137;-82
2023/12/13 05:48:35;;;;;;;0.55;0.50;;;;;;;;;;5049479;28;20089;-82
2023/12/13 05:51:00;;;;;;;1.65;0.70;;;;;;;;;;5048722;28;20033;-81
2023/12/13 05:53:25;;;;;;;0.47;0.43;;;;;;;;;;5050001;28;20025;-81
2023/12/13 05:55:50;;;;;;;0.43;0.43;;;;;;;;;;5048630;28;20030;-82
2023/12/13 05:58:16;;;;;;;3.42;0.60;;;;;;;;;;5046460;28;20076;-81
2023/12/13 06:00:41;;;;;;;0.50;0.50;;;;;;;;;;5027687;28;20041;-81
2023/12/13 06:03:06;;;;;;;2.47;0.90;;;;;;;;;;5041896;28;20139;-81
2023/12/13 06:05:32;;;;;;;0.60;0.60;;;;;;;;;;5040287;28;20074;-81
2023/12/13 06:07:57;;;;;;;0.73;0.60;;;;;;;;;;5043601;28;20057;-82
2023/12/13 06:10:22;;;;;;;0.70;0.63;;;;;;;;;;5051615;28;20049;-82
2023/12/13 06:12:50;;;;;;;1.48;0.60;;;;;;;;;;5048818;28;20041;-81
2023/12/13 06:15:16;;;;;;;2.28;0.60;;;;;;;;;;5047661;28;20023;-82
2023/12/13 06:17:41;;;;;;;1.55;0.80;;;;;;;;;;5025988;28;20045;-81
2023/12/13 06:20:07;;;;;;;1.20;0.63;;;;;;;;;;5041506;28;20056;-82
2023/12/13 06:22:33;;;;;;;1.10;0.60;;;;;;;;;;5044448;28;20041;-81
2023/12/13 06:24:58;;;;;;;0.75;0.70;;;;;;;;;;5042106;28;20030;-81
2023/12/13 06:27:23;;;;;;;0.60;0.60;;;;;;;;;;5042968;28;20025;-81
2023/12/13 06:29:49;;;;;;;1.55;0.65;;;;;;;;;;5046104;28;20025;-81
2023/12/13 06:32:14;;;;;;;2.83;0.73;;;;;;;;;;5048012;28;20113;-81
2023/12/13 06:34:39;;;;;;;2.92;0.68;;;;;;;;;;5044018;28;20044;-81
2023/12/13 06:37:06;;;;;;;0.50;0.50;;;;;;;;;;5047114;28;20036;-82
2023/12/13 06:39:31;;;;;;;1.13;0.57;;;;;;;;;;5042894;28;20052;-83
2023/12/13 06:41:56;;;;;;;1.10;0.60;;;;;;;;;;5050183;28;20033;-80
2023/12/13 06:44:22;;;;;;;0.60;0.60;;;;;;;;;;5057048;28;20064;-80
2023/12/13 06:46:47;;;;;;;1.45;0.55;;;;;;;;;;5047389;28;20044;-80
2023/12/13 06:49:12;;;;;;;0.50;0.50;;;;;;;;;;5046687;28;20048;-80
2023/12/13 06:51:38;;;;;;;0.50;0.50;;;;;;;;;;5050740;28;20036;-81
2023/12/13 06:54:03;;;;;;;0.50;0.50;;;;;;;;;;5055756;28;20056;-80
2023/12/13 06:56:28;;;;;;;2.22;0.70;;;;;;;;;;5048753;28;20018;-80
2023/12/13 06:58:54;;;;;;;0.60;0.60;;;;;;;;;;5046758;28;20040;-80
2023/12/13 07:01:20;;;;;;;2.90;0.60;;;;;;;;;;5031222;28;20044;-80
2023/12/13 07:03:45;;;;;;;1.25;0.70;;;;;;;;;;5031670;28;20069;-80
2023/12/13 07:06:10;;;;;;;0.40;0.40;;;;;;;;;;5056222;28;20037;-80
2023/12/13 07:08:36;;;;;;;1.33;0.70;;;;;;;;;;5047259;28;20021;-79
2023/12/13 07:11:03;;;;;;;0.98;0.73;;;;;;;;;;5051256;28;20060;-79
2023/12/13 07:13:29;;;;;;;2.90;0.80;;;;;;;;;;5051177;28;20033;-80
2023/12/13 07:15:54;;;;;;;4.22;0.60;;;;;;;;;;5043412;28;20257;-81
2023/12/13 07:18:21;;;;;;;0.70;0.52;;;;;;;;;;5028347;28;20485;-78
2023/12/13 07:20:47;;;;;;;0.50;0.50;;;;;;;;;;5048806;28;20056;-78
2023/12/13 07:23:12;;;;;;;0.88;0.63;;;;;;;;;;5044994;28;20094;-78
2023/12/13 07:25:38;;;;;;;0.50;0.50;;;;;;;;;;5047163;28;20096;-78
2023/12/13 07:28:04;;;;;;;4.88;0.90;;;;;;;;;;5049204;28;20090;-78
2023/12/13 07:30:29;;;;;;;0.98;0.95;;;;;;;;;;5047758;28;20029;-78
2023/12/13 07:32:54;;;;;;;1.00;0.90;;;;;;;;;;5053780;28;20035;-78
2023/12/13 07:35:19;;;;;;;4.97;1.10;;;;;;;;;;5049704;28;20066;-78
2023/12/13 07:37:45;;;;;;;2.47;0.90;;;;;;;;;;5048459;28;20350;-78
2023/12/13 07:40:11;;;;;;;1.75;1.15;;;;;;;;;;5051318;28;20085;-78
2023/12/13 07:42:36;;;;;;;2.42;1.08;;;;;;;;;;5054402;28;20041;-78
2023/12/13 07:45:02;;;;;;;2.20;1.17;;;;;;;;;;5037124;28;20515;-78
2023/12/13 07:47:28;;;;;;;2.00;1.30;;;;;;;;;;5050057;28;20044;-79
2023/12/13 07:49:53;;;;;;;0.70;0.70;;;;;;;;;;5024623;28;20064;-78
2023/12/13 07:52:18;;;;;;;1.13;0.90;;;;;;;;;;5050728;28;20080;-79
2023/12/13 07:54:43;;;;;;;2.00;1.05;;;;;;;;;;5049177;28;20090;-78
2023/12/13 07:57:09;;;;;;;0.85;0.82;;;;;;;;;;5049350;28;20104;-78
2023/12/13 07:59:34;;;;;;;1.38;0.88;;;;;;;;;;5052748;28;20105;-78
2023/12/13 08:02:00;;;;;;;0.73;0.60;;;;;;;;;;5051259;28;20057;-78
2023/12/13 08:04:25;;;;;;;2.55;0.90;;;;;;;;;;5048556;28;20404;-79
2023/12/13 08:06:50;;;;;;;2.88;1.23;;;;;;;;;;5045817;28;20059;-79
2023/12/13 08:09:18;;;;;;;1.35;0.73;;;;;;;;;;5052624;28;20032;-79
2023/12/13 08:11:44;;;;;;;2.10;0.93;;;;;;;;;;5049522;28;20056;-79
2023/12/13 08:14:09;;;;;;;0.50;0.50;;;;;;;;;;5047986;28;20045;-80
2023/12/13 08:16:34;;;;;;;1.40;0.80;;;;;;;;;;5042937;28;20400;-79
2023/12/13 08:18:59;;;;;;;0.73;0.73;;;;;;;;;;5051566;28;20095;-77
2023/12/13 08:21:25;;;;;;;0.93;0.75;;;;;;;;;;5049370;28;20039;-78
2023/12/13 08:23:50;;;;;;;2.38;0.70;;;;;;;;;;5046910;28;20063;-79
2023/12/13 08:26:16;;;;;;;0.70;0.70;;;;;;;;;;5047684;28;20033;-77
2023/12/13 08:28:42;;;;;;;3.30;1.00;;;;;;;;;;5045817;28;20424;-77
2023/12/13 08:31:08;;;;;;;1.13;1.08;;;;;;;;;;5047848;28;20051;-77
2023/12/13 08:33:34;;;;;;;0.70;0.70;;;;;;;;;;5049291;28;20053;-78
2023/12/13 08:35:59;;;;;;;0.65;0.60;;;;;;;;;;5045889;28;20529;-78
2023/12/13 08:38:24;;;;;;;0.82;0.80;;;;;;;;;;5044332;28;20041;-78
2023/12/13 08:40:50;;;;;;;2.78;1.27;;;;;;;;;;5049114;28;20386;-77
2023/12/13 08:43:15;;;;;;;1.05;0.95;;;;;;;;;;5042123;28;20036;-78
2023/12/13 08:45:41;;;;;;;3.92;1.25;;;;;;;;;;5044048;28;20030;-78
2023/12/13 08:48:07;;;;;;;3.92;1.40;;;;;;;;;;5028118;28;20089;-78
2023/12/13 08:50:33;;;;;;;1.65;0.95;;;;;;;;;;5047969;28;20115;-78
2023/12/13 08:52:58;;;;;;;2.20;1.38;;;;;;;;;;5044269;28;20043;-77
2023/12/13 08:55:23;;;;;;;2.10;0.95;;;;;;;;;;5045579;28;20419;-78
2023/12/13 08:57:49;;;;;;;1.77;1.33;;;;;;;;;;5042113;28;20843;-78
2023/12/13 09:00:14;;;;;;;2.10;1.00;;;;;;;;;;5048997;28;20078;-78
2023/12/13 09:02:39;;;;;;;4.18;1.23;;;;;;;;;;5049994;28;20025;-78
2023/12/13 09:05:05;;;;;;;1.17;1.17;;;;;;;;;;5050653;28;20043;-78
2023/12/13 09:07:31;;;;;;;2.88;1.30;;;;;;;;;;5020902;28;20075;-78
2023/12/13 09:09:57;;;;;;;4.13;1.50;;;;;;;;;;5046663;28;20043;-78
2023/12/13 09:12:22;;;;;;;3.40;2.20;;;;;;;;;;5055556;28;20227;-79
2023/12/13 09:14:47;;;;;;;3.05;1.38;;;;;;;;;;5051154;28;20029;-79
2023/12/13 09:17:12;;;;;;;2.65;1.25;;;;;;;;;;5047045;28;20032;-79
2023/12/13 09:19:38;;;;;;;0.70;0.70;;;;;;;;;;5048649;28;20053;-81
2023/12/13 09:22:03;;;;;;;0.60;0.60;;;;;;;;;;5025748;28;20033;-79
2023/12/13 09:24:29;;;;;;;1.00;0.93;;;;;;;;;;5049039;28;20087;-79
2023/12/13 09:26:54;;;;;;;4.35;1.60;;;;;;;;;;5044045;28;20072;-79
2023/12/13 09:29:20;;;;;;;3.15;2.00;;;;;;;;;;5047626;28;20088;-78
2023/12/13 09:31:45;;;;;;;1.10;1.10;;;;;;;;;;5050737;28;20055;-79
2023/12/13 09:34:10;;;;;;;0.85;0.85;;;;;;;;;;5048155;28;20041;-79
2023/12/13 09:36:36;;;;;;;1.90;0.98;;;;;;;;;;5052421;28;20103;-79
2023/12/13 09:39:01;;;;;;;1.65;0.55;;;;;;;;;;5051201;28;20044;-79
2023/12/13 09:41:38;;;;;;;1.65;0.73;;;;;;;;;;5027159;28;20037;-79
2023/12/13 09:44:03;;;;;;;0.68;0.63;;;;;;;;;;5052791;28;20037;-79
2023/12/13 09:46:29;;;;;;;2.17;1.00;;;;;;;;;;5048762;28;20127;-79
2023/12/13 09:48:55;;;;;;;0.70;0.70;;;;;;;;;;5033057;28;20041;-78
2023/12/13 09:51:22;;;;;;;1.92;1.08;;;;;;;;;;5032595;28;20025;-78
2023/12/13 09:53:49;;;;;;;2.40;0.90;;;;;;;;;;5014631;28;20041;-77
2023/12/13 09:56:14;;;;;;;1.15;0.90;;;;;;;;;;5032253;28;20037;-78
2023/12/13 09:58:40;;;;;;;1.15;1.00;;;;;;;;;;5032685;28;20041;-78
2023/12/13 10:01:15;;;;;;;1.52;1.08;;;;;;;;;;5014065;28;20065;-77
2023/12/13 10:03:40;;;;;;;0.90;0.90;;;;;;;;;;5032304;28;20086;-78
2023/12/13 10:06:09;;;;;;;2.30;1.08;;;;;;;;;;5031814;28;20076;-78
2023/12/13 10:08:35;;;;;;;1.20;1.10;;;;;;;;;;5015079;28;20029;-78
2023/12/13 10:11:04;;;;;;;2.53;1.35;;;;;;;;;;5033248;28;20034;-80
2023/12/13 10:13:30;;;;;;;2.50;1.30;;;;;;;;;;5032001;28;20042;-77
2023/12/13 10:15:55;;;;;;;2.50;1.20;;;;;;;;;;5032838;28;20045;-78
2023/12/13 10:18:20;;;;;;;2.28;1.02;;;;;;;;;;5035463;28;20121;-78
2023/12/13 10:20:46;;;;;;;1.23;1.13;;;;;;;;;;5018564;28;20025;-77
2023/12/13 10:23:12;;;;;;;1.05;0.95;;;;;;;;;;5036039;28;20038;-77
2023/12/13 10:25:38;;;;;;;0.85;0.80;;;;;;;;;;5035433;28;20097;-78
2023/12/13 10:28:04;;;;;;;1.98;1.10;;;;;;;;;;5035039;28;20068;-78
2023/12/13 10:30:30;;;;;;;3.05;0.90;;;;;;;;;;5034967;28;20049;-77
2023/12/13 10:32:55;;;;;;;2.22;1.05;;;;;;;;;;5054585;28;20025;-78
2023/12/13 10:35:22;;;;;;;1.20;1.10;;;;;;;;;;5054532;28;20029;-78
2023/12/13 10:37:48;;;;;;;1.48;1.02;;;;;;;;;;5037091;28;20136;-77
2023/12/13 10:40:15;;;;;;;0.90;0.90;;;;;;;;;;5054684;28;20029;-77
2023/12/13 10:42:45;;;;;;;2.10;1.00;;;;;;;;;;5054566;28;20149;-77
2023/12/13 10:45:11;;;;;;;2.45;1.00;;;;;;;;;;5054898;28;20028;-77
2023/12/13 10:47:43;;;;;;;1.08;0.98;;;;;;;;;;5055065;28;20028;-77
2023/12/13 10:50:10;;;;;;;2.05;0.93;;;;;;;;;;5054677;28;20132;-77
2023/12/13 10:52:37;;;;;;;1.35;1.02;;;;;;;;;;5054761;28;20106;-77
2023/12/13 10:55:03;;;;;;;0.95;0.90;;;;;;;;;;5054738;28;20041;-77
2023/12/13 10:57:29;;;;;;;0.80;0.80;;;;;;;;;;5054511;28;20096;-77
2023/12/13 10:59:55;;;;;;;1.20;1.00;;;;;;;;;;5055190;28;20272;-77
2023/12/13 11:02:21;;;;;;;2.60;1.17;;;;;;;;;;5054697;28;20064;-77
2023/12/13 11:04:47;;;;;;;2.05;1.15;;;;;;;;;;5054710;28;20033;-80
2023/12/13 11:07:12;;;;;;;1.38;0.90;;;;;;;;;;5054813;28;20076;-78
2023/12/13 11:09:52;;;;;;;2.05;1.10;;;;;;;;;;5054919;28;20025;-77
2023/12/13 11:12:20;;;;;;;1.45;1.25;;;;;;;;;;5056276;28;20029;-80
2023/12/13 11:14:50;;;;;;;1.35;1.15;;;;;;;;;;5059145;28;20021;-81
2023/12/13 11:17:17;;;;;;;2.25;1.17;;;;;;;;;;5059476;28;20546;-79
2023/12/13 11:19:42;;;;;;;0.70;0.70;;;;;;;;;;5058366;28;20037;-79
2023/12/13 11:22:12;;;;;;;0.82;0.82;;;;;;;;;;5058118;28;20048;-80
2023/12/13 11:24:40;;;;;;;1.00;0.80;;;;;;;;;;5057591;28;20583;-79
2023/12/13 11:27:10;;;;;;;4.25;1.35;;;;;;;;;;5056720;28;20032;-79
2023/12/13 11:29:35;;;;;;;0.80;0.80;;;;;;;;;;5057043;28;20028;-79
2023/12/13 11:32:03;;;;;;;0.93;0.90;;;;;;;;;;5056912;28;20404;-79
2023/12/13 11:34:31;;;;;;;2.80;1.10;;;;;;;;;;5055907;28;20069;-79
2023/12/13 11:37:04;;;;;;;1.25;1.08;;;;;;;;;;5057147;28;20090;-79
2023/12/13 11:39:30;;;;;;;0.75;0.75;;;;;;;;;;5056392;28;20028;-79
2023/12/13 11:41:56;;;;;;;2.58;0.80;;;;;;;;;;5057847;28;20488;-80
2023/12/13 11:44:21;;;;;;;0.82;0.80;;;;;;;;;;5040835;28;20080;-80
2023/12/13 11:46:58;;;;;;;0.70;0.70;;;;;;;;;;5054631;28;20086;-79
2023/12/13 11:49:25;;;;;;;0.90;0.75;;;;;;;;;;5057688;28;20040;-79
2023/12/13 11:51:51;;;;;;;1.30;0.82;;;;;;;;;;5057271;28;20103;-79
2023/12/13 11:54:16;;;;;;;0.65;0.65;;;;;;;;;;5056865;28;20081;-79
2023/12/13 11:56:43;;;;;;;1.13;0.55;;;;;;;;;;5057798;28;20025;-79
2023/12/13 11:59:08;;;;;;;0.65;0.57;;;;;;;;;;5055268;28;20052;-79
2023/12/13 12:01:33;;;;;;;0.70;0.70;;;;;;;;;;5038890;28;20033;-79
2023/12/13 12:03:59;;;;;;;0.70;0.70;;;;;;;;;;5057008;28;20033;-79
2023/12/13 12:06:25;;;;;;;1.23;0.77;;;;;;;;;;5055683;28;20058;-79
2023/12/13 12:08:50;;;;;;;0.80;0.80;;;;;;;;;;5056815;28;20035;-79
2023/12/13 12:11:19;;;;;;;0.55;0.52;;;;;;;;;;5038222;28;20182;-78
2023/12/13 12:13:44;;;;;;;1.48;0.73;;;;;;;;;;5056446;28;20138;-79
2023/12/13 12:16:10;;;;;;;1.95;0.70;;;;;;;;;;5056325;28;20044;-79
2023/12/13 12:18:38;;;;;;;0.90;0.70;;;;;;;;;;5055857;28;20045;-79
2023/12/13 12:21:05;;;;;;;0.52;0.52;;;;;;;;;;5056427;28;20021;-79
2023/12/13 12:23:30;;;;;;;0.52;0.52;;;;;;;;;;5057286;28;20358;-79
2023/12/13 12:25:56;;;;;;;1.17;0.70;;;;;;;;;;5056816;28;20040;-78
2023/12/13 12:28:21;;;;;;;2.30;0.85;;;;;;;;;;5056986;28;20287;-78
2023/12/13 12:30:46;;;;;;;1.30;0.80;;;;;;;;;;5056998;28;20033;-79
2023/12/13 12:33:13;;;;;;;2.50;0.80;;;;;;;;;;5056831;28;20074;-78
2023/12/13 12:35:39;;;;;;;1.75;0.60;;;;;;;;;;5055308;28;20028;-78
2023/12/13 12:38:08;;;;;;;0.68;0.68;;;;;;;;;;5055899;28;20041;-78
2023/12/13 12:40:33;;;;;;;1.40;0.50;;;;;;;;;;5055347;28;20033;-79
2023/12/13 12:42:58;;;;;;;1.33;0.80;;;;;;;;;;5056175;28;20056;-78
2023/12/13 12:45:24;;;;;;;0.75;0.50;;;;;;;;;;5056496;28;20049;-78
2023/12/13 12:47:50;;;;;;;2.13;0.70;;;;;;;;;;5038299;28;20064;-78
2023/12/13 12:50:15;;;;;;;0.50;0.50;;;;;;;;;;5056043;28;20094;-78
2023/12/13 12:52:42;;;;;;;1.90;0.82;;;;;;;;;;5056435;28;20039;-78
2023/12/13 12:55:07;;;;;;;0.50;0.50;;;;;;;;;;5037586;28;20033;-78
2023/12/13 12:57:33;;;;;;;1.05;0.68;;;;;;;;;;5038003;28;20167;-78
2023/12/13 12:59:58;;;;;;;0.50;0.50;;;;;;;;;;5037631;28;20023;-78
2023/12/13 13:02:23;;;;;;;1.55;0.70;;;;;;;;;;5055005;28;20041;-78
2023/12/13 13:04:48;;;;;;;0.60;0.60;;;;;;;;;;5054221;28;20033;-78
2023/12/13 13:07:14;;;;;;;0.70;0.70;;;;;;;;;;5036954;28;20029;-78
2023/12/13 13:09:39;;;;;;;1.77;0.95;;;;;;;;;;5054888;28;20044;-78
2023/12/13 13:12:05;;;;;;;0.50;0.50;;;;;;;;;;5036588;28;20025;-78
2023/12/13 13:14:30;;;;;;;1.15;0.70;;;;;;;;;;5054428;28;20473;-78
2023/12/13 13:16:56;;;;;;;0.50;0.50;;;;;;;;;;5054453;28;20676;-78
2023/12/13 13:19:21;;;;;;;0.52;0.52;;;;;;;;;;5053775;28;20045;-78
2023/12/13 13:21:46;;;;;;;3.00;0.50;;;;;;;;;;5053427;28;20037;-78
2023/12/13 13:24:12;;;;;;;0.73;0.60;;;;;;;;;;5035555;28;20506;-78
2023/12/13 13:26:37;;;;;;;0.68;0.68;;;;;;;;;;5054553;28;20029;-78
2023/12/13 13:29:04;;;;;;;0.40;0.40;;;;;;;;;;5053854;28;20041;-78
2023/12/13 13:31:29;;;;;;;1.80;0.65;;;;;;;;;;5053952;28;20032;-78
2023/12/13 13:33:55;;;;;;;0.70;0.70;;;;;;;;;;5052856;28;20051;-78
2023/12/13 13:36:20;;;;;;;0.40;0.40;;;;;;;;;;5053112;28;20063;-78
2023/12/13 13:38:46;;;;;;;0.50;0.50;;;;;;;;;;5036031;28;20098;-78
2023/12/13 13:41:12;;;;;;;0.70;0.70;;;;;;;;;;5053396;28;20115;-78
2023/12/13 13:43:37;;;;;;;1.25;0.52;;;;;;;;;;5035496;28;20025;-78
2023/12/13 13:46:02;;;;;;;1.08;0.50;;;;;;;;;;5053827;28;20497;-78
2023/12/13 13:48:28;;;;;;;1.05;0.95;;;;;;;;;;5053065;28;20037;-78
2023/12/13 13:50:53;;;;;;;0.50;0.50;;;;;;;;;;5054967;28;20111;-78
2023/12/13 13:53:18;;;;;;;0.60;0.60;;;;;;;;;;5056989;28;20124;-78
2023/12/13 13:55:44;;;;;;;0.50;0.50;;;;;;;;;;5057915;28;20123;-78
2023/12/13 13:58:10;;;;;;;0.52;0.52;;;;;;;;;;5045068;28;20408;-78
2023/12/13 14:00:35;;;;;;;0.52;0.52;;;;;;;;;;5037805;28;20353;-78
2023/12/13 14:03:01;;;;;;;0.98;0.70;;;;;;;;;;5038667;28;20021;-78
2023/12/13 14:05:29;;;;;;;3.78;0.90;;;;;;;;;;5038667;28;20029;-78
2023/12/13 14:07:55;;;;;;;0.70;0.60;;;;;;;;;;5039274;28;20087;-78
2023/12/13 14:10:20;;;;;;;2.92;0.80;;;;;;;;;;5038167;28;20034;-78
2023/12/13 14:12:46;;;;;;;0.60;0.60;;;;;;;;;;5037661;28;20037;-78
2023/12/13 14:15:11;;;;;;;2.67;0.70;;;;;;;;;;5038355;28;20026;-78
2023/12/13 14:17:37;;;;;;;0.85;0.85;;;;;;;;;;5038675;28;20541;-78
2023/12/13 14:20:04;;;;;;;0.82;0.82;;;;;;;;;;5037938;28;20472;-79
2023/12/13 14:22:30;;;;;;;0.60;0.60;;;;;;;;;;5038556;28;20414;-78
2023/12/13 14:24:55;;;;;;;0.60;0.60;;;;;;;;;;5038307;28;20049;-78
2023/12/13 14:27:21;;;;;;;2.53;0.90;;;;;;;;;;5038128;28;20041;-78
2023/12/13 14:29:47;;;;;;;2.53;0.70;;;;;;;;;;5037199;28;20036;-79
2023/12/13 14:32:12;;;;;;;1.73;0.70;;;;;;;;;;5019964;28;20041;-79
2023/12/13 14:34:37;;;;;;;0.70;0.70;;;;;;;;;;5019315;28;20037;-79